createdAt,value
2024-04-22T00:00:41.471Z,66
2024-04-22T00:10:46.760Z,67
2024-04-22T00:20:57.874Z,67
2024-04-22T00:31:06.264Z,67
2024-04-22T00:41:11.543Z,66
2024-04-22T00:51:24.091Z,68
2024-04-22T01:01:29.378Z,71
2024-04-22T01:11:34.554Z,67
2024-04-22T01:21:39.816Z,69
2024-04-22T01:31:45.073Z,70
2024-04-22T01:41:50.377Z,72
2024-04-22T01:51:55.639Z,70
2024-04-22T02:02:00.920Z,67
2024-04-22T02:12:06.280Z,69
2024-04-22T02:22:11.562Z,71
2024-04-22T02:32:19.975Z,70
2024-04-22T02:42:21.479Z,68
2024-04-22T02:52:28.104Z,67
2024-04-22T03:02:33.357Z,64
2024-04-22T03:12:38.601Z,68
2024-04-22T03:22:43.939Z,70
2024-04-22T03:32:49.140Z,71
2024-04-22T03:42:54.417Z,72
2024-04-22T03:53:00.014Z,72
2024-04-22T04:03:05.367Z,73
2024-04-22T04:13:10.944Z,73
2024-04-22T04:23:16.175Z,74
2024-04-22T04:33:21.463Z,75
2024-04-22T04:43:26.837Z,76
2024-04-22T04:53:31.961Z,75
2024-04-22T05:03:39.878Z,74
2024-04-22T05:13:45.118Z,73
2024-04-22T05:23:50.341Z,75
2024-04-22T05:33:55.609Z,76
2024-04-22T05:44:00.874Z,76
2024-04-22T05:54:06.201Z,77
2024-04-22T06:04:11.554Z,78
2024-04-22T06:14:16.809Z,80
2024-04-22T06:24:24.110Z,79
2024-04-22T06:34:35.130Z,79
2024-04-22T06:44:39.083Z,81
2024-04-22T06:54:44.459Z,79
2024-04-22T07:04:49.980Z,79
2024-04-22T07:14:54.674Z,75
2024-04-22T07:25:03.276Z,74
2024-04-22T07:35:03.952Z,70
2024-04-22T07:45:09.277Z,73
2024-04-22T07:55:15.689Z,71
2024-04-22T08:05:20.914Z,71
2024-04-22T08:15:26.276Z,71
2024-04-22T08:25:31.747Z,73
2024-04-22T08:35:37.146Z,74
2024-04-22T08:45:42.821Z,73
2024-04-22T08:55:48.195Z,72
2024-04-22T09:05:53.471Z,72
2024-04-22T09:15:58.665Z,69
2024-04-22T09:26:04.163Z,66
2024-04-22T09:36:10.851Z,66
2024-04-22T09:46:16.531Z,64
2024-04-22T09:56:21.596Z,65
2024-04-22T10:06:27.014Z,63
2024-04-22T10:16:32.260Z,61
2024-04-22T10:26:37.735Z,59
2024-04-22T10:36:42.225Z,59
2024-04-22T10:46:46.813Z,58
2024-04-22T10:56:52.052Z,59
2024-04-22T11:06:57.350Z,56
2024-04-22T11:17:02.756Z,56
2024-04-22T11:27:10.704Z,55
2024-04-22T11:37:16.003Z,53
2024-04-22T11:47:21.388Z,54
2024-04-22T11:57:28.173Z,53
2024-04-22T12:07:33.559Z,51
2024-04-22T12:17:38.896Z,51
2024-04-22T12:27:44.206Z,52
2024-04-22T12:37:49.160Z,50
2024-04-22T12:47:57.286Z,51
2024-04-22T12:58:02.519Z,47
2024-04-22T13:08:07.916Z,48
2024-04-22T13:18:13.369Z,47
2024-04-22T13:28:18.181Z,46
2024-04-22T13:38:24.788Z,42
2024-04-22T13:48:31.627Z,44
2024-04-22T13:58:36.474Z,49
2024-04-22T14:08:41.777Z,51
2024-04-22T14:18:47.027Z,56
2024-04-22T14:28:52.405Z,57
2024-04-22T14:38:57.681Z,59
2024-04-22T14:49:04.238Z,59
2024-04-22T14:59:09.213Z,59
2024-04-22T15:09:14.491Z,59
2024-04-22T15:19:19.826Z,61
2024-04-22T15:29:25.129Z,64
2024-04-22T15:39:30.491Z,67
2024-04-22T15:49:35.722Z,66
2024-04-22T15:59:45.083Z,67
2024-04-22T16:09:44.510Z,67
2024-04-22T16:19:51.032Z,66
2024-04-22T16:29:56.388Z,66
2024-04-22T16:40:01.615Z,66
2024-04-22T16:50:06.900Z,69
2024-04-22T17:00:14.272Z,70
2024-04-22T17:10:19.556Z,70
2024-04-22T17:20:24.851Z,69
2024-04-22T17:30:30.156Z,68
2024-04-22T17:40:35.534Z,67
2024-04-22T17:50:40.720Z,69
2024-04-22T18:00:46.087Z,72
2024-04-22T18:10:51.485Z,76
2024-04-22T18:20:56.699Z,77
2024-04-22T18:31:01.484Z,79
2024-04-22T18:41:10.221Z,79
2024-04-22T18:51:12.129Z,78
2024-04-22T19:01:17.503Z,79
2024-04-22T19:11:22.795Z,76
2024-04-22T19:21:28.073Z,77
2024-04-22T19:31:34.490Z,74
2024-04-22T19:41:39.782Z,73
2024-04-22T19:51:50.494Z,73
2024-04-22T20:01:58.174Z,76
2024-04-22T20:12:05.307Z,76
2024-04-22T20:22:13.072Z,76
2024-04-22T20:32:20.814Z,74
2024-04-22T20:42:30.903Z,74
2024-04-22T20:52:29.066Z,74
2024-04-22T21:02:39.785Z,76
2024-04-22T21:12:40.432Z,77
2024-04-22T21:22:46.806Z,76
2024-04-22T21:32:57.828Z,76
2024-04-22T21:42:57.915Z,76
2024-04-22T21:53:04.555Z,75
2024-04-22T22:03:09.817Z,76
2024-04-22T22:13:17.360Z,76
2024-04-22T22:23:22.619Z,76
2024-04-22T22:33:29.061Z,76
2024-04-22T22:43:34.438Z,76
2024-04-22T22:53:39.682Z,77
2024-04-22T23:03:44.965Z,78
2024-04-22T23:13:50.296Z,80
2024-04-22T23:23:55.554Z,81
2024-04-22T23:34:00.809Z,76
2024-04-22T23:44:06.401Z,74
2024-04-22T23:54:11.908Z,74
